createdAt,value
2023-05-05T00:03:42.817Z,74.13
2023-05-05T00:08:46.535Z,74.20
2023-05-05T00:13:49.828Z,74.36
2023-05-05T00:18:52.937Z,75.35
2023-05-05T00:23:56.157Z,76.39
2023-05-05T00:28:59.259Z,78.38
2023-05-05T00:34:02.279Z,79.41
2023-05-05T00:39:05.281Z,80.70
2023-05-05T00:44:08.895Z,82.60
2023-05-05T00:49:12.563Z,83.81
2023-05-05T00:54:15.832Z,83.98
2023-05-05T00:59:19.042Z,85.65
2023-05-05T01:04:22.358Z,86.81
2023-05-05T01:09:32.400Z,88.20
2023-05-05T01:14:39.836Z,89.27
2023-05-05T01:19:58.098Z,90.34
2023-05-05T01:25:48.322Z,90.36
2023-05-05T01:31:03.414Z,91.71
2023-05-05T01:36:16.316Z,92.59
2023-05-05T01:41:34.708Z,92.41
2023-05-05T01:46:38.230Z,92.76
2023-05-05T01:51:42.416Z,93.10
2023-05-05T01:56:46.483Z,94.04
2023-05-05T02:01:50.722Z,94.48
2023-05-05T02:06:56.574Z,94.50
2023-05-05T02:12:02.454Z,94.72
2023-05-05T02:17:05.590Z,95.37
2023-05-05T02:22:08.907Z,95.58
2023-05-05T02:27:12.500Z,95.71
2023-05-05T02:32:20.843Z,95.71
2023-05-05T02:37:27.776Z,95.71
2023-05-05T02:42:41.856Z,95.33
2023-05-05T02:47:45.091Z,95.25
2023-05-05T02:52:48.438Z,95.07
2023-05-05T02:58:14.178Z,95.10
2023-05-05T03:03:44.934Z,95.55
2023-05-05T03:09:02.996Z,95.88
2023-05-05T03:14:10.807Z,95.92
2023-05-05T03:19:18.192Z,95.87
2023-05-05T03:24:21.663Z,95.85
2023-05-05T03:29:25.561Z,96.02
2023-05-05T03:34:28.674Z,96.11
2023-05-05T03:39:31.861Z,95.63
2023-05-05T03:44:36.848Z,95.11
2023-05-05T03:49:39.864Z,95.13
2023-05-05T03:54:43.259Z,95.02
2023-05-05T03:59:46.786Z,94.82
2023-05-05T04:04:49.786Z,94.45
2023-05-05T04:09:53.005Z,93.91
2023-05-05T04:14:56.108Z,93.81
2023-05-05T04:19:59.318Z,93.93
2023-05-05T04:25:02.679Z,93.92
2023-05-05T04:30:07.069Z,93.62
2023-05-05T04:35:10.296Z,93.66
2023-05-05T04:40:13.708Z,93.89
2023-05-05T04:45:16.807Z,93.79
2023-05-05T04:50:19.946Z,93.59
2023-05-05T04:55:23.061Z,93.43
2023-05-05T05:00:26.136Z,93.10
2023-05-05T05:05:29.252Z,92.13
2023-05-05T05:10:32.348Z,91.26
2023-05-05T05:15:38.430Z,89.89
2023-05-05T05:20:41.644Z,87.51
2023-05-05T05:25:44.756Z,84.81
2023-05-05T05:30:48.046Z,79.24
2023-05-05T05:35:51.072Z,76.46
2023-05-05T05:40:54.688Z,73.34
2023-05-05T05:45:57.678Z,71.24
2023-05-05T05:51:02.236Z,69.42
2023-05-05T05:56:06.141Z,67.87
2023-05-05T06:01:09.113Z,68.05
2023-05-05T06:06:12.181Z,66.66
2023-05-05T06:11:15.286Z,64.96
2023-05-05T06:16:18.401Z,63.61
2023-05-05T06:21:21.810Z,58.50
2023-05-05T06:26:26.350Z,54.44
2023-05-05T06:31:29.588Z,54.01
2023-05-05T06:36:32.849Z,53.47
2023-05-05T06:41:36.293Z,49.87
2023-05-05T06:46:39.529Z,47.60
2023-05-05T06:51:43.052Z,46.49
2023-05-05T06:56:46.958Z,45.79
2023-05-05T07:01:51.187Z,45.32
2023-05-05T07:06:55.547Z,44.73
2023-05-05T07:11:58.773Z,43.81
2023-05-05T07:17:01.942Z,42.38
2023-05-05T07:22:05.287Z,41.58
2023-05-05T07:27:08.721Z,42.13
2023-05-05T07:32:12.053Z,43.01
2023-05-05T07:37:15.311Z,42.49
2023-05-05T07:42:18.526Z,41.80
2023-05-05T07:47:21.817Z,42.72
2023-05-05T07:52:43.703Z,43.28
2023-05-05T07:57:49.852Z,43.99
2023-05-05T08:02:53.119Z,44.08
2023-05-05T08:07:56.285Z,43.14
2023-05-05T08:12:59.436Z,42.40
2023-05-05T08:18:02.662Z,42.39
2023-05-05T08:23:06.432Z,42.88
2023-05-05T08:28:09.639Z,42.40
2023-05-05T08:33:13.012Z,42.57
2023-05-05T08:38:16.473Z,42.33
2023-05-05T08:43:22.925Z,42.35
2023-05-05T08:48:28.565Z,42.38
2023-05-05T08:53:34.205Z,44.17
2023-05-05T08:58:37.807Z,46.04
2023-05-05T09:03:41.141Z,47.31
2023-05-05T09:08:44.749Z,47.92
2023-05-05T09:19:09.101Z,49.80
2023-05-05T09:24:13.471Z,49.08
2023-05-05T09:29:23.429Z,48.92
2023-05-05T09:34:26.967Z,49.15
2023-05-05T09:39:30.038Z,48.44
2023-05-05T09:44:35.289Z,47.78
2023-05-05T09:49:39.020Z,48.73
2023-05-05T09:54:43.461Z,48.09
2023-05-05T10:00:16.262Z,48.95
2023-05-05T10:05:19.614Z,48.31
2023-05-05T10:10:22.871Z,48.15
2023-05-05T10:15:26.090Z,46.82
2023-05-05T10:20:33.375Z,47.20
2023-05-05T10:25:47.456Z,47.88
2023-05-05T10:30:54.579Z,47.54
2023-05-05T10:36:05.563Z,48.37
2023-05-05T10:41:10.496Z,47.26
2023-05-05T10:46:13.779Z,47.14
2023-05-05T10:51:53.086Z,45.64
2023-05-05T10:56:58.252Z,45.74
2023-05-05T11:02:01.456Z,45.83
2023-05-05T11:07:14.722Z,45.64
2023-05-05T11:12:18.224Z,45.16
2023-05-05T11:17:47.280Z,45.10
2023-05-05T11:23:02.749Z,45.22
2023-05-05T11:28:08.853Z,45.20
2023-05-05T11:33:30.710Z,44.44
2023-05-05T11:38:36.637Z,43.62
2023-05-05T11:43:41.891Z,43.06
2023-05-05T11:48:49.257Z,43.61
2023-05-05T11:53:52.821Z,43.36
2023-05-05T11:59:09.866Z,42.89
2023-05-05T12:04:16.485Z,42.60
2023-05-05T12:09:21.291Z,41.92
2023-05-05T12:14:25.892Z,41.78
2023-05-05T12:19:33.289Z,41.62
2023-05-05T12:24:36.464Z,40.91
2023-05-05T12:29:39.568Z,40.64
2023-05-05T12:34:43.402Z,41.60
2023-05-05T12:39:46.509Z,42.60
2023-05-05T12:44:49.925Z,41.46
2023-05-05T12:49:53.652Z,40.63
2023-05-05T12:55:00.248Z,40.20
2023-05-05T13:00:15.646Z,40.47
2023-05-05T13:05:33.182Z,40.28
2023-05-05T13:10:36.616Z,39.84
2023-05-05T13:15:39.709Z,39.69
2023-05-05T13:20:42.812Z,39.59
2023-05-05T13:25:46.008Z,39.21
2023-05-05T13:30:49.145Z,39.46
2023-05-05T13:35:52.347Z,38.57
2023-05-05T13:40:55.560Z,39.08
2023-05-05T13:46:08.639Z,38.77
2023-05-05T13:51:16.532Z,38.57
2023-05-05T13:56:19.949Z,38.96
2023-05-05T14:01:23.112Z,38.97
2023-05-05T14:06:26.558Z,38.64
2023-05-05T14:11:31.725Z,38.34
2023-05-05T14:16:35.023Z,38.64
2023-05-05T14:21:38.344Z,38.05
2023-05-05T14:26:41.363Z,38.18
2023-05-05T14:31:44.366Z,38.53
2023-05-05T14:36:47.822Z,38.50
2023-05-05T14:41:51.195Z,38.75
2023-05-05T14:46:54.296Z,38.92
2023-05-05T14:51:57.421Z,38.72
2023-05-05T14:57:00.644Z,38.96
2023-05-05T15:02:03.836Z,38.47
2023-05-05T15:07:06.954Z,37.80
2023-05-05T15:12:09.942Z,37.80
2023-05-05T15:17:13.160Z,38.11
2023-05-05T15:22:16.158Z,38.12
2023-05-05T15:27:19.172Z,38.32
2023-05-05T15:32:22.340Z,38.56
2023-05-05T15:37:25.387Z,38.74
2023-05-05T15:42:28.595Z,38.21
2023-05-05T15:47:31.683Z,38.34
2023-05-05T15:52:35.117Z,37.97
2023-05-05T15:57:39.978Z,37.41
2023-05-05T16:02:43.229Z,37.80
2023-05-05T16:07:46.723Z,37.68
2023-05-05T16:12:50.253Z,37.90
2023-05-05T16:17:53.375Z,39.26
2023-05-05T16:22:57.474Z,39.33
2023-05-05T16:28:01.804Z,39.32
2023-05-05T16:33:05.040Z,38.82
2023-05-05T16:38:08.010Z,39.58
2023-05-05T16:43:11.138Z,39.10
2023-05-05T16:48:14.858Z,39.85
2023-05-05T16:53:18.059Z,39.99
2023-05-05T16:58:22.583Z,40.12
2023-05-05T17:03:25.717Z,40.27
2023-05-05T17:08:28.682Z,40.88
2023-05-05T17:13:31.826Z,40.94
2023-05-05T17:18:34.945Z,41.53
2023-05-05T17:23:37.959Z,41.66
2023-05-05T17:28:41.148Z,42.20
2023-05-05T17:33:44.164Z,42.30
2023-05-05T17:38:47.274Z,42.05
2023-05-05T17:43:50.372Z,42.18
2023-05-05T17:48:53.848Z,42.59
2023-05-05T17:53:57.103Z,42.82
2023-05-05T17:59:00.894Z,42.78
2023-05-05T18:04:04.446Z,43.01
2023-05-05T18:09:09.207Z,43.23
2023-05-05T18:14:14.146Z,43.54
2023-05-05T18:19:17.255Z,43.87
2023-05-05T18:24:20.771Z,44.01
2023-05-05T18:29:23.992Z,44.21
2023-05-05T18:34:27.097Z,44.61
2023-05-05T18:39:30.521Z,44.96
2023-05-05T18:44:34.948Z,45.15
2023-05-05T18:49:38.169Z,45.69
2023-05-05T18:54:41.285Z,45.70
2023-05-05T18:59:44.283Z,46.45
2023-05-05T19:04:47.208Z,47.29
2023-05-05T19:09:50.900Z,48.32
2023-05-05T19:14:53.808Z,49.61
2023-05-05T19:19:56.918Z,50.42
2023-05-05T19:24:59.921Z,51.48
2023-05-05T19:30:05.078Z,51.95
2023-05-05T19:35:10.700Z,52.60
2023-05-05T19:40:14.156Z,53.18
2023-05-05T19:45:17.792Z,53.69
2023-05-05T19:50:21.507Z,54.11
2023-05-05T19:55:24.721Z,54.80
2023-05-05T20:00:27.820Z,55.02
2023-05-05T20:05:31.030Z,55.59
2023-05-05T20:10:34.754Z,55.80
2023-05-05T20:15:37.740Z,56.46
2023-05-05T20:20:40.872Z,56.95
2023-05-05T20:25:43.894Z,57.24
2023-05-05T20:30:46.885Z,57.43
2023-05-05T20:35:49.790Z,57.91
2023-05-05T20:40:53.008Z,58.61
2023-05-05T20:45:56.316Z,58.92
2023-05-05T20:51:03.026Z,59.34
2023-05-05T20:56:08.002Z,59.48
2023-05-05T21:01:11.950Z,60.08
2023-05-05T21:06:14.996Z,61.10
2023-05-05T21:11:18.009Z,60.97
2023-05-05T21:16:21.097Z,61.64
2023-05-05T21:21:24.727Z,61.68
2023-05-05T21:26:27.944Z,62.22
2023-05-05T21:31:31.177Z,62.74
2023-05-05T21:36:34.566Z,63.46
2023-05-05T21:41:37.689Z,63.86
2023-05-05T21:46:40.860Z,64.60
2023-05-05T21:51:45.026Z,64.67
2023-05-05T21:56:48.134Z,64.63
2023-05-05T22:01:51.353Z,64.52
2023-05-05T22:06:54.452Z,64.70
2023-05-05T22:11:57.757Z,65.09
2023-05-05T22:17:00.873Z,65.36
2023-05-05T22:22:04.188Z,65.52
2023-05-05T22:27:07.327Z,65.84
2023-05-05T22:32:10.508Z,66.11
2023-05-05T22:37:14.234Z,66.46
2023-05-05T22:42:17.343Z,66.38
2023-05-05T22:47:20.503Z,66.60
2023-05-05T22:52:25.815Z,66.61
2023-05-05T22:57:28.824Z,66.54
2023-05-05T23:02:32.123Z,66.39
2023-05-05T23:07:35.340Z,66.33
2023-05-05T23:12:38.561Z,66.38
2023-05-05T23:17:41.593Z,66.04
2023-05-05T23:22:44.664Z,65.86
2023-05-05T23:27:48.191Z,66.00
2023-05-05T23:32:51.227Z,66.08
2023-05-05T23:37:54.299Z,66.18
2023-05-05T23:42:57.310Z,66.17
2023-05-05T23:48:00.560Z,66.29
2023-05-05T23:53:03.622Z,66.20
2023-05-05T23:58:06.735Z,66.10
